Time;durP1;ratioP1;P1;durP2;ratioP2;P2;SDS_P1;SDS_P2;PMS_P1;PMS_P2;Temp;Humidity;BMP_temperature;BMP_pressure;BME280_temperature;BME280_humidity;BME280_pressure;Samples;Min_cycle;Max_cycle;Signal;HPM_P1;HPM_P2
2022/06/13 00:55:46;;;;;;;7.40;3.42;;;;;;;;;;6286724;22;20210;-92
2022/06/13 00:58:54;;;;;;;4.30;3.22;;;;;;;;;;6275828;22;20173;-92
2022/06/13 01:01:59;;;;;;;5.53;3.70;;;;;;;;;;6276782;22;20182;-93
2022/06/13 01:05:04;;;;;;;7.93;3.60;;;;;;;;;;6274170;22;20162;-89
2022/06/13 01:08:11;;;;;;;4.97;3.35;;;;;;;;;;6275701;22;20146;-92
2022/06/13 01:11:19;;;;;;;6.93;3.65;;;;;;;;;;6274572;22;20165;-93
2022/06/13 01:14:35;;;;;;;5.88;3.80;;;;;;;;;;6275042;22;20165;-93
2022/06/13 01:17:49;;;;;;;7.68;3.45;;;;;;;;;;6275185;22;20170;-91
2022/06/13 01:21:05;;;;;;;5.55;3.50;;;;;;;;;;6274785;22;20224;-93
2022/06/13 01:24:24;;;;;;;6.22;3.28;;;;;;;;;;6275688;22;20166;-92
2022/06/13 01:27:47;;;;;;;7.22;3.80;;;;;;;;;;6274045;22;20173;-92
2022/06/13 01:31:01;;;;;;;5.57;3.03;;;;;;;;;;6275700;22;20169;-90
2022/06/13 01:34:12;;;;;;;5.65;3.35;;;;;;;;;;6274995;22;20221;-92
2022/06/13 01:37:24;;;;;;;6.75;3.60;;;;;;;;;;6274664;22;20487;-91
2022/06/13 01:40:39;;;;;;;6.38;3.33;;;;;;;;;;6274430;22;20213;-91
2022/06/13 01:43:51;;;;;;;6.57;3.35;;;;;;;;;;6276719;22;20232;-93
2022/06/13 01:47:03;;;;;;;5.43;3.38;;;;;;;;;;6274028;22;20166;-92
2022/06/13 01:50:16;;;;;;;6.15;3.45;;;;;;;;;;6274348;22;20285;-92
2022/06/13 01:53:24;;;;;;;5.07;3.25;;;;;;;;;;6273918;22;20174;-91
2022/06/13 01:56:34;;;;;;;7.65;3.00;;;;;;;;;;6273911;22;20166;-92
2022/06/13 01:59:43;;;;;;;4.72;3.10;;;;;;;;;;6274396;22;20656;-92
2022/06/13 02:02:52;;;;;;;8.35;3.67;;;;;;;;;;6274356;22;20165;-92
2022/06/13 02:06:00;;;;;;;6.75;3.75;;;;;;;;;;6274794;22;20169;-92
2022/06/13 02:09:08;;;;;;;6.20;3.30;;;;;;;;;;6273820;22;20170;-92
2022/06/13 02:12:14;;;;;;;7.43;3.83;;;;;;;;;;6275376;22;20166;-92
2022/06/13 02:15:23;;;;;;;6.25;3.50;;;;;;;;;;6276453;22;20197;-93
2022/06/13 02:18:33;;;;;;;8.98;3.65;;;;;;;;;;6274503;22;20166;-92
2022/06/13 02:22:21;;;;;;;7.32;3.65;;;;;;;;;;6275069;22;20273;-91
2022/06/13 02:25:29;;;;;;;6.68;3.25;;;;;;;;;;6273122;22;20249;-93
2022/06/13 02:28:36;;;;;;;6.40;3.80;;;;;;;;;;6274146;22;20642;-93
2022/06/13 02:31:44;;;;;;;7.22;3.40;;;;;;;;;;6273106;22;20166;-92
2022/06/13 02:34:54;;;;;;;6.22;3.95;;;;;;;;;;6272683;22;20166;-92
2022/06/13 02:38:02;;;;;;;5.95;3.25;;;;;;;;;;6271301;22;20161;-92
2022/06/13 02:41:09;;;;;;;10.48;3.63;;;;;;;;;;6270269;22;20193;-94
2022/06/13 02:44:18;;;;;;;7.05;3.60;;;;;;;;;;6270927;22;20162;-93
2022/06/13 02:47:26;;;;;;;8.23;3.47;;;;;;;;;;6272683;22;20166;-92
2022/06/13 02:50:37;;;;;;;8.82;3.72;;;;;;;;;;6273496;22;20170;-92
2022/06/13 02:53:46;;;;;;;11.23;3.90;;;;;;;;;;6273635;22;20162;-92
2022/06/13 03:00:24;;;;;;;6.13;4.13;;;;;;;;;;6271429;22;20335;-91
2022/06/13 03:03:37;;;;;;;8.27;4.00;;;;;;;;;;6273125;22;20248;-91
2022/06/13 03:06:49;;;;;;;7.93;4.18;;;;;;;;;;6272842;22;20169;-92
2022/06/13 03:09:56;;;;;;;8.88;4.20;;;;;;;;;;6272014;22;20170;-93
2022/06/13 03:13:03;;;;;;;6.57;3.55;;;;;;;;;;6274334;22;20157;-91
2022/06/13 03:16:11;;;;;;;8.73;3.50;;;;;;;;;;6272811;22;20165;-92
2022/06/13 03:19:18;;;;;;;8.90;4.50;;;;;;;;;;6272443;22;20197;-92
2022/06/13 03:22:49;;;;;;;8.35;4.32;;;;;;;;;;6274748;22;20161;-92
2022/06/13 03:25:59;;;;;;;9.13;4.80;;;;;;;;;;6274852;22;20632;-91
2022/06/13 03:29:06;;;;;;;9.68;5.38;;;;;;;;;;6273906;22;20161;-92
2022/06/13 03:32:15;;;;;;;12.38;5.85;;;;;;;;;;6274912;22;20165;-92
2022/06/13 03:35:21;;;;;;;8.85;4.57;;;;;;;;;;6273129;22;20197;-93
2022/06/13 03:38:28;;;;;;;12.98;4.70;;;;;;;;;;6274953;22;20177;-92
2022/06/13 03:41:38;;;;;;;9.55;4.93;;;;;;;;;;6273976;22;20170;-92
2022/06/13 03:44:47;;;;;;;10.30;4.90;;;;;;;;;;6273203;22;20165;-93
2022/06/13 03:47:59;;;;;;;10.80;5.20;;;;;;;;;;6275217;22;20676;-92
2022/06/13 03:51:06;;;;;;;8.80;4.40;;;;;;;;;;6274202;22;20169;-92
2022/06/13 03:54:13;;;;;;;12.05;5.70;;;;;;;;;;6273111;22;20469;-92
2022/06/13 03:57:22;;;;;;;8.80;4.68;;;;;;;;;;6272761;22;20170;-93
2022/06/13 04:00:30;;;;;;;7.78;3.55;;;;;;;;;;6276697;22;20242;-92
2022/06/13 04:03:36;;;;;;;7.55;3.95;;;;;;;;;;6274817;22;20197;-92
2022/06/13 04:06:43;;;;;;;12.48;4.55;;;;;;;;;;6274624;22;20226;-92
2022/06/13 04:09:49;;;;;;;11.25;4.18;;;;;;;;;;6273600;22;20217;-91
2022/06/13 04:13:06;;;;;;;0.88;0.88;;;;;;;;;;6274679;22;20169;-92
2022/06/13 04:16:38;;;;;;;0.35;0.35;;;;;;;;;;6273644;22;20166;-93
2022/06/13 04:19:49;;;;;;;2.95;0.75;;;;;;;;;;6275758;22;20193;-92
2022/06/13 04:22:58;;;;;;;0.40;0.40;;;;;;;;;;6273273;22;20170;-93
2022/06/13 04:26:05;;;;;;;0.40;0.40;;;;;;;;;;6273429;22;20170;-91
2022/06/13 04:29:14;;;;;;;0.60;0.60;;;;;;;;;;6274216;22;20212;-92
2022/06/13 04:32:24;;;;;;;1.15;1.08;;;;;;;;;;6275247;22;20214;-93
2022/06/13 04:35:31;;;;;;;0.52;0.52;;;;;;;;;;6275581;22;20162;-92
2022/06/13 04:38:38;;;;;;;0.40;0.40;;;;;;;;;;6276074;22;20177;-92
2022/06/13 04:46:09;;;;;;;0.63;0.63;;;;;;;;;;6296461;22;20229;-93
2022/06/13 04:49:21;;;;;;;0.40;0.40;;;;;;;;;;6277740;22;20190;-91
2022/06/13 04:52:29;;;;;;;0.47;0.47;;;;;;;;;;6275831;22;20195;-92
2022/06/13 04:55:43;;;;;;;0.45;0.45;;;;;;;;;;6276209;22;20250;-92
2022/06/13 04:58:52;;;;;;;0.38;0.38;;;;;;;;;;6276748;22;20193;-92
2022/06/13 05:02:02;;;;;;;0.70;0.70;;;;;;;;;;6274984;22;20181;-90
2022/06/13 05:05:10;;;;;;;0.30;0.30;;;;;;;;;;6276789;22;20166;-93
2022/06/13 05:08:22;;;;;;;3.40;0.63;;;;;;;;;;6275740;22;20162;-91
2022/06/13 05:11:28;;;;;;;0.40;0.40;;;;;;;;;;6278643;22;20149;-92
2022/06/13 05:14:35;;;;;;;0.57;0.57;;;;;;;;;;6276676;22;20166;-92
2022/06/13 05:17:54;;;;;;;0.43;0.43;;;;;;;;;;6275493;22;20164;-92
2022/06/13 05:21:06;;;;;;;0.40;0.40;;;;;;;;;;6277469;22;20177;-92
2022/06/13 05:24:28;;;;;;;0.88;0.65;;;;;;;;;;6273626;22;20209;-92
2022/06/13 05:27:33;;;;;;;0.63;0.63;;;;;;;;;;6274546;22;20205;-93
2022/06/13 05:30:41;;;;;;;0.35;0.35;;;;;;;;;;6275017;22;20165;-92
2022/06/13 05:33:52;;;;;;;0.50;0.50;;;;;;;;;;6294603;22;20170;-92
2022/06/13 05:37:00;;;;;;;0.40;0.40;;;;;;;;;;6277532;22;20170;-92
2022/06/13 05:40:06;;;;;;;0.40;0.40;;;;;;;;;;6280006;22;20189;-92
2022/06/13 05:43:52;;;;;;;4.03;0.93;;;;;;;;;;6278315;22;20165;-93
2022/06/13 05:46:58;;;;;;;0.73;0.50;;;;;;;;;;6276106;22;20153;-92
2022/06/13 05:50:08;;;;;;;0.30;0.30;;;;;;;;;;6275170;22;20163;-93
2022/06/13 05:53:14;;;;;;;0.85;0.77;;;;;;;;;;6275710;22;20197;-92
2022/06/13 05:56:21;;;;;;;1.48;1.00;;;;;;;;;;6274294;22;20166;-93
2022/06/13 05:59:26;;;;;;;0.90;0.50;;;;;;;;;;6275843;22;20177;-92
2022/06/13 09:00:09;;;;;;;1.20;0.55;;;;;;;;;;6264773;22;20237;-91
2022/06/13 09:12:41;;;;;;;0.77;0.77;;;;;;;;;;6274157;22;20269;-92
2022/06/13 09:15:50;;;;;;;0.50;0.50;;;;;;;;;;6277172;22;20173;-93
2022/06/13 09:19:02;;;;;;;0.50;0.50;;;;;;;;;;6276976;22;20169;-92
2022/06/13 09:22:10;;;;;;;0.50;0.50;;;;;;;;;;6279448;22;20170;-91
2022/06/13 09:25:21;;;;;;;0.47;0.47;;;;;;;;;;6278762;22;20257;-91
2022/06/13 09:28:32;;;;;;;46.63;2.13;;;;;;;;;;6279630;22;20257;-94
2022/06/13 09:31:42;;;;;;;0.43;0.43;;;;;;;;;;6278707;22;20213;-94
2022/06/13 09:34:49;;;;;;;0.40;0.40;;;;;;;;;;6280931;22;20169;-94
2022/06/13 09:38:00;;;;;;;0.50;0.50;;;;;;;;;;6280753;22;20169;-93
2022/06/13 09:41:21;;;;;;;0.20;0.20;;;;;;;;;;6280514;22;20206;-92
2022/06/13 09:44:32;;;;;;;0.40;0.40;;;;;;;;;;6279790;22;20190;-92
2022/06/13 09:47:46;;;;;;;2.03;0.82;;;;;;;;;;6279303;22;20166;-90
2022/06/13 09:50:57;;;;;;;0.65;0.65;;;;;;;;;;6280101;22;20173;-92
2022/06/13 09:54:10;;;;;;;0.73;0.73;;;;;;;;;;6277823;22;20173;-93
2022/06/13 09:57:22;;;;;;;0.40;0.40;;;;;;;;;;6297234;22;20166;-92
2022/06/13 10:00:32;;;;;;;0.30;0.30;;;;;;;;;;6278365;22;20181;-92
2022/06/13 10:03:47;;;;;;;0.20;0.20;;;;;;;;;;6280316;22;20201;-92
2022/06/13 10:06:56;;;;;;;0.73;0.73;;;;;;;;;;6278695;22;20166;-93
2022/06/13 10:10:07;;;;;;;2.92;1.80;;;;;;;;;;6280382;22;20154;-91
2022/06/13 10:16:48;;;;;;;2.33;1.60;;;;;;;;;;6279128;22;20540;-94
2022/06/13 10:20:00;;;;;;;3.35;2.05;;;;;;;;;;6279085;22;20264;-93
2022/06/13 10:23:10;;;;;;;3.80;1.65;;;;;;;;;;6279902;22;20168;-92
2022/06/13 10:26:32;;;;;;;2.38;1.60;;;;;;;;;;6279478;22;20188;-94
2022/06/13 10:29:53;;;;;;;2.78;1.70;;;;;;;;;;6278526;22;20153;-93
2022/06/13 10:33:10;;;;;;;2.78;1.85;;;;;;;;;;6281266;22;20157;-92
2022/06/13 11:35:12;;;;;;;5.97;1.80;;;;;;;;;;6295346;22;20202;-93
2022/06/13 11:45:25;;;;;;;7.22;1.80;;;;;;;;;;6280855;22;20205;-91
2022/06/13 11:48:32;;;;;;;4.60;1.85;;;;;;;;;;6281052;22;20165;-92
2022/06/13 12:23:59;;;;;;;3.03;1.40;;;;;;;;;;6296347;22;20218;-91
2022/06/13 12:27:12;;;;;;;8.32;1.40;;;;;;;;;;6280539;22;20165;-94
2022/06/13 12:30:21;;;;;;;5.95;1.23;;;;;;;;;;6232364;22;20267;-93
2022/06/13 12:33:37;;;;;;;5.47;1.70;;;;;;;;;;6281621;22;20157;-92
2022/06/13 12:36:55;;;;;;;4.82;1.50;;;;;;;;;;6278958;22;20161;-93
2022/06/13 15:53:39;;;;;;;6.25;1.63;;;;;;;;;;6243264;22;20198;-92
2022/06/13 15:56:45;;;;;;;8.05;1.65;;;;;;;;;;6277677;22;20218;-93
2022/06/13 15:59:55;;;;;;;5.15;1.58;;;;;;;;;;6278351;22;20209;-91
2022/06/13 16:03:07;;;;;;;6.30;1.50;;;;;;;;;;6278742;22;20207;-92
2022/06/13 16:06:16;;;;;;;7.07;1.88;;;;;;;;;;6276628;22;20213;-91
2022/06/13 16:09:30;;;;;;;3.17;1.30;;;;;;;;;;6277754;22;20257;-92
2022/06/13 16:12:39;;;;;;;3.42;1.35;;;;;;;;;;6280333;22;20243;-93
2022/06/13 16:15:47;;;;;;;4.43;1.25;;;;;;;;;;6278927;22;20161;-91
2022/06/13 16:18:55;;;;;;;5.07;1.25;;;;;;;;;;6276736;22;20165;-93
2022/06/13 16:22:01;;;;;;;6.30;1.38;;;;;;;;;;6277632;22;20216;-93
2022/06/13 16:25:10;;;;;;;6.90;1.60;;;;;;;;;;6277347;22;20212;-92
2022/06/13 16:28:21;;;;;;;3.35;1.30;;;;;;;;;;6278831;22;20149;-92
2022/06/13 16:31:26;;;;;;;4.88;1.42;;;;;;;;;;6278739;22;20212;-91
2022/06/13 16:34:33;;;;;;;7.55;1.52;;;;;;;;;;6265580;22;20162;-92
2022/06/13 16:37:52;;;;;;;6.25;1.35;;;;;;;;;;6278381;22;20585;-91
2022/06/13 16:40:59;;;;;;;5.32;1.75;;;;;;;;;;6277207;22;20185;-92
2022/06/13 16:44:06;;;;;;;7.28;1.50;;;;;;;;;;6280839;22;20170;-92
2022/06/13 16:47:25;;;;;;;6.15;1.40;;;;;;;;;;6280782;22;20170;-93
2022/06/13 16:50:30;;;;;;;7.50;1.70;;;;;;;;;;6279854;22;20177;-92
2022/06/13 16:53:41;;;;;;;4.22;1.25;;;;;;;;;;6280635;22;20181;-91
2022/06/13 16:56:50;;;;;;;5.20;1.13;;;;;;;;;;6280206;22;20145;-94
2022/06/13 17:00:00;;;;;;;3.13;1.52;;;;;;;;;;6280377;22;20216;-91
2022/06/13 17:06:33;;;;;;;15.73;1.98;;;;;;;;;;6279313;22;20178;-92
2022/06/13 17:09:58;;;;;;;4.30;1.10;;;;;;;;;;6282073;22;20165;-91
2022/06/13 21:28:52;;;;;;;8.10;2.10;;;;;;;;;;6253794;22;20322;-93
2022/06/13 21:32:17;;;;;;;7.75;2.08;;;;;;;;;;6271513;22;20614;-92
